Terminal Aerodrome Forecast
Issued by NWS Louisville, KY

Home | Current Version | Previous Version | Text Only | Print | Product List | Glossary On
Versions: 1 2 3 4 5 6 7 8 9 10 11 12 13 14 15 16 17
914
FTUS43 KLMK 221008 AAC
TAFSDF
TAF AMD
KSDF 221008Z 2210/2312 VRB03KT 6SM BR SCT025 OVC080
     FM221200 VRB03KT 6SM BR OVC025
     FM221500 18004KT P6SM BKN035=

USA.gov is the U.S. government's official web portal to all federal, state and local government web resources and services.